sensor_id;sensor_type;location;lat;lon;timestamp;P1;durP1;ratioP1;P2;durP2;ratioP2
52574;SDS011;38468;48.114;-1.684;2023-06-10T00:00:57;10.82;;;9.80;;
52574;SDS011;38468;48.114;-1.684;2023-06-10T00:02:59;12.23;;;9.80;;
52574;SDS011;38468;48.114;-1.684;2023-06-10T00:05:00;10.45;;;9.40;;
52574;SDS011;38468;48.114;-1.684;2023-06-10T00:07:00;11.32;;;10.27;;
52574;SDS011;38468;48.114;-1.684;2023-06-10T00:09:03;10.43;;;9.45;;
52574;SDS011;38468;48.114;-1.684;2023-06-10T00:11:05;10.75;;;9.75;;
52574;SDS011;38468;48.114;-1.684;2023-06-10T00:13:05;11.93;;;10.52;;
52574;SDS011;38468;48.114;-1.684;2023-06-10T00:15:10;14.23;;;10.80;;
52574;SDS011;38468;48.114;-1.684;2023-06-10T00:17:10;13.32;;;11.20;;
52574;SDS011;38468;48.114;-1.684;2023-06-10T00:19:11;13.15;;;11.82;;
52574;SDS011;38468;48.114;-1.684;2023-06-10T00:21:13;13.15;;;11.75;;
52574;SDS011;38468;48.114;-1.684;2023-06-10T00:23:14;13.32;;;11.63;;
52574;SDS011;38468;48.114;-1.684;2023-06-10T00:25:15;13.50;;;11.43;;
52574;SDS011;38468;48.114;-1.684;2023-06-10T00:27:15;11.18;;;10.05;;
52574;SDS011;38468;48.114;-1.684;2023-06-10T00:29:16;9.77;;;8.88;;
52574;SDS011;38468;48.114;-1.684;2023-06-10T00:31:17;11.93;;;10.93;;
52574;SDS011;38468;48.114;-1.684;2023-06-10T00:33:17;11.65;;;10.32;;
52574;SDS011;38468;48.114;-1.684;2023-06-10T00:35:18;10.48;;;9.57;;
52574;SDS011;38468;48.114;-1.684;2023-06-10T00:37:19;11.13;;;10.13;;
52574;SDS011;38468;48.114;-1.684;2023-06-10T00:39:19;11.73;;;10.60;;
52574;SDS011;38468;48.114;-1.684;2023-06-10T00:41:20;15.35;;;10.35;;
52574;SDS011;38468;48.114;-1.684;2023-06-10T00:43:20;10.65;;;9.60;;
52574;SDS011;38468;48.114;-1.684;2023-06-10T00:45:21;11.07;;;9.73;;
52574;SDS011;38468;48.114;-1.684;2023-06-10T00:47:22;12.43;;;11.30;;
52574;SDS011;38468;48.114;-1.684;2023-06-10T00:49:23;9.77;;;8.80;;
52574;SDS011;38468;48.114;-1.684;2023-06-10T00:51:25;10.27;;;9.23;;
52574;SDS011;38468;48.114;-1.684;2023-06-10T00:53:26;10.77;;;9.68;;
52574;SDS011;38468;48.114;-1.684;2023-06-10T00:55:28;11.13;;;9.93;;
52574;SDS011;38468;48.114;-1.684;2023-06-10T00:57:33;11.35;;;10.25;;
52574;SDS011;38468;48.114;-1.684;2023-06-10T00:59:34;10.15;;;9.15;;
52574;SDS011;38468;48.114;-1.684;2023-06-10T01:01:35;9.77;;;8.77;;
52574;SDS011;38468;48.114;-1.684;2023-06-10T01:03:39;9.80;;;8.45;;
52574;SDS011;38468;48.114;-1.684;2023-06-10T01:05:41;11.80;;;9.43;;
52574;SDS011;38468;48.114;-1.684;2023-06-10T01:12:27;13.20;;;11.05;;
52574;SDS011;38468;48.114;-1.684;2023-06-10T01:14:40;11.85;;;10.32;;
52574;SDS011;38468;48.114;-1.684;2023-06-10T01:16:48;11.77;;;10.57;;
52574;SDS011;38468;48.114;-1.684;2023-06-10T01:18:53;10.57;;;9.60;;
52574;SDS011;38468;48.114;-1.684;2023-06-10T01:20:54;13.65;;;10.45;;
52574;SDS011;38468;48.114;-1.684;2023-06-10T01:22:56;12.45;;;10.48;;
52574;SDS011;38468;48.114;-1.684;2023-06-10T01:24:59;12.05;;;10.05;;
52574;SDS011;38468;48.114;-1.684;2023-06-10T01:27:04;11.23;;;10.00;;
52574;SDS011;38468;48.114;-1.684;2023-06-10T01:29:17;11.25;;;10.25;;
52574;SDS011;38468;48.114;-1.684;2023-06-10T01:35:48;12.90;;;11.60;;
52574;SDS011;38468;48.114;-1.684;2023-06-10T01:37:53;11.25;;;10.07;;
52574;SDS011;38468;48.114;-1.684;2023-06-10T01:39:57;17.25;;;10.40;;
52574;SDS011;38468;48.114;-1.684;2023-06-10T01:41:59;10.30;;;9.35;;
52574;SDS011;38468;48.114;-1.684;2023-06-10T01:44:02;11.40;;;9.60;;
52574;SDS011;38468;48.114;-1.684;2023-06-10T01:46:04;10.30;;;9.30;;
52574;SDS011;38468;48.114;-1.684;2023-06-10T01:48:05;10.85;;;9.80;;
52574;SDS011;38468;48.114;-1.684;2023-06-10T01:50:07;9.75;;;8.95;;
52574;SDS011;38468;48.114;-1.684;2023-06-10T01:52:08;10.82;;;9.57;;
52574;SDS011;38468;48.114;-1.684;2023-06-10T01:54:09;11.55;;;10.43;;
52574;SDS011;38468;48.114;-1.684;2023-06-10T01:56:10;12.07;;;10.32;;
52574;SDS011;38468;48.114;-1.684;2023-06-10T01:58:16;12.15;;;10.88;;
52574;SDS011;38468;48.114;-1.684;2023-06-10T02:00:17;11.50;;;10.40;;
52574;SDS011;38468;48.114;-1.684;2023-06-10T02:02:18;9.52;;;8.55;;
52574;SDS011;38468;48.114;-1.684;2023-06-10T02:04:18;13.02;;;9.73;;
52574;SDS011;38468;48.114;-1.684;2023-06-10T02:06:19;14.90;;;9.85;;
52574;SDS011;38468;48.114;-1.684;2023-06-10T02:08:20;10.30;;;9.30;;
52574;SDS011;38468;48.114;-1.684;2023-06-10T02:10:21;10.05;;;9.25;;
52574;SDS011;38468;48.114;-1.684;2023-06-10T02:12:22;10.88;;;9.88;;
52574;SDS011;38468;48.114;-1.684;2023-06-10T02:14:23;13.95;;;10.35;;
52574;SDS011;38468;48.114;-1.684;2023-06-10T02:16:24;12.10;;;10.82;;
52574;SDS011;38468;48.114;-1.684;2023-06-10T02:18:26;12.50;;;11.20;;
52574;SDS011;38468;48.114;-1.684;2023-06-10T02:20:28;15.00;;;11.80;;
52574;SDS011;38468;48.114;-1.684;2023-06-10T02:22:29;13.45;;;11.57;;
52574;SDS011;38468;48.114;-1.684;2023-06-10T02:24:35;10.43;;;9.52;;
52574;SDS011;38468;48.114;-1.684;2023-06-10T02:26:37;11.95;;;9.55;;
52574;SDS011;38468;48.114;-1.684;2023-06-10T02:28:38;13.00;;;11.25;;
52574;SDS011;38468;48.114;-1.684;2023-06-10T02:30:43;12.32;;;10.88;;
52574;SDS011;38468;48.114;-1.684;2023-06-10T02:32:44;12.68;;;11.48;;
52574;SDS011;38468;48.114;-1.684;2023-06-10T02:34:47;15.05;;;11.35;;
52574;SDS011;38468;48.114;-1.684;2023-06-10T02:36:51;13.18;;;11.73;;
52574;SDS011;38468;48.114;-1.684;2023-06-10T02:38:55;13.32;;;11.88;;
52574;SDS011;38468;48.114;-1.684;2023-06-10T02:40:57;11.15;;;10.07;;
52574;SDS011;38468;48.114;-1.684;2023-06-10T02:43:04;10.57;;;9.50;;
52574;SDS011;38468;48.114;-1.684;2023-06-10T02:45:05;14.35;;;12.85;;
52574;SDS011;38468;48.114;-1.684;2023-06-10T02:47:06;14.32;;;12.82;;
52574;SDS011;38468;48.114;-1.684;2023-06-10T02:49:10;14.80;;;13.30;;
52574;SDS011;38468;48.114;-1.684;2023-06-10T02:51:12;18.38;;;13.50;;
52574;SDS011;38468;48.114;-1.684;2023-06-10T02:53:13;12.30;;;11.20;;
52574;SDS011;38468;48.114;-1.684;2023-06-10T02:55:17;16.05;;;11.98;;
52574;SDS011;38468;48.114;-1.684;2023-06-10T02:57:19;14.63;;;13.20;;
52574;SDS011;38468;48.114;-1.684;2023-06-10T02:59:19;15.30;;;13.82;;
52574;SDS011;38468;48.114;-1.684;2023-06-10T03:01:21;15.80;;;13.07;;
52574;SDS011;38468;48.114;-1.684;2023-06-10T03:03:21;12.68;;;11.35;;
52574;SDS011;38468;48.114;-1.684;2023-06-10T03:05:22;13.95;;;11.77;;
52574;SDS011;38468;48.114;-1.684;2023-06-10T03:07:26;14.43;;;12.70;;
52574;SDS011;38468;48.114;-1.684;2023-06-10T03:09:28;13.55;;;12.02;;
52574;SDS011;38468;48.114;-1.684;2023-06-10T03:11:29;13.77;;;12.52;;
52574;SDS011;38468;48.114;-1.684;2023-06-10T03:13:30;16.15;;;13.60;;
52574;SDS011;38468;48.114;-1.684;2023-06-10T03:15:32;12.60;;;11.40;;
52574;SDS011;38468;48.114;-1.684;2023-06-10T03:17:33;14.43;;;13.10;;
52574;SDS011;38468;48.114;-1.684;2023-06-10T03:19:37;13.57;;;12.18;;
52574;SDS011;38468;48.114;-1.684;2023-06-10T03:21:38;15.98;;;13.63;;
52574;SDS011;38468;48.114;-1.684;2023-06-10T03:23:41;15.88;;;13.77;;
52574;SDS011;38468;48.114;-1.684;2023-06-10T03:25:42;15.07;;;13.57;;
52574;SDS011;38468;48.114;-1.684;2023-06-10T03:27:44;18.38;;;14.05;;
52574;SDS011;38468;48.114;-1.684;2023-06-10T03:29:45;15.27;;;13.77;;
52574;SDS011;38468;48.114;-1.684;2023-06-10T03:31:46;15.18;;;13.50;;
52574;SDS011;38468;48.114;-1.684;2023-06-10T03:33:50;14.35;;;12.93;;
52574;SDS011;38468;48.114;-1.684;2023-06-10T03:35:51;15.15;;;13.13;;
52574;SDS011;38468;48.114;-1.684;2023-06-10T03:37:52;19.65;;;14.02;;
52574;SDS011;38468;48.114;-1.684;2023-06-10T03:39:53;15.48;;;13.77;;
52574;SDS011;38468;48.114;-1.684;2023-06-10T03:41:53;17.75;;;14.75;;
52574;SDS011;38468;48.114;-1.684;2023-06-10T03:43:54;13.02;;;11.80;;
52574;SDS011;38468;48.114;-1.684;2023-06-10T03:45:55;14.65;;;13.18;;
52574;SDS011;38468;48.114;-1.684;2023-06-10T03:47:56;15.40;;;13.90;;
52574;SDS011;38468;48.114;-1.684;2023-06-10T03:49:57;15.52;;;13.88;;
52574;SDS011;38468;48.114;-1.684;2023-06-10T03:51:57;15.82;;;14.25;;
52574;SDS011;38468;48.114;-1.684;2023-06-10T03:53:58;15.38;;;13.88;;
52574;SDS011;38468;48.114;-1.684;2023-06-10T03:55:59;22.77;;;15.32;;
52574;SDS011;38468;48.114;-1.684;2023-06-10T03:58:00;14.70;;;13.25;;
52574;SDS011;38468;48.114;-1.684;2023-06-10T04:00:01;16.42;;;14.65;;
52574;SDS011;38468;48.114;-1.684;2023-06-10T04:02:06;15.57;;;12.88;;
52574;SDS011;38468;48.114;-1.684;2023-06-10T04:04:08;15.25;;;13.68;;
52574;SDS011;38468;48.114;-1.684;2023-06-10T04:06:10;17.33;;;13.18;;
52574;SDS011;38468;48.114;-1.684;2023-06-10T04:08:11;15.52;;;12.45;;
52574;SDS011;38468;48.114;-1.684;2023-06-10T04:10:11;17.80;;;13.80;;
52574;SDS011;38468;48.114;-1.684;2023-06-10T04:12:12;17.42;;;15.55;;
52574;SDS011;38468;48.114;-1.684;2023-06-10T04:14:13;18.45;;;15.10;;
52574;SDS011;38468;48.114;-1.684;2023-06-10T04:16:13;17.25;;;14.70;;
52574;SDS011;38468;48.114;-1.684;2023-06-10T04:18:14;25.10;;;14.95;;
52574;SDS011;38468;48.114;-1.684;2023-06-10T04:20:15;20.50;;;13.82;;
52574;SDS011;38468;48.114;-1.684;2023-06-10T04:22:16;17.75;;;15.55;;
52574;SDS011;38468;48.114;-1.684;2023-06-10T04:24:17;24.65;;;15.38;;
52574;SDS011;38468;48.114;-1.684;2023-06-10T04:26:18;18.15;;;14.52;;
52574;SDS011;38468;48.114;-1.684;2023-06-10T04:28:19;19.98;;;14.75;;
52574;SDS011;38468;48.114;-1.684;2023-06-10T04:30:20;20.38;;;13.85;;
52574;SDS011;38468;48.114;-1.684;2023-06-10T04:32:21;16.48;;;14.88;;
52574;SDS011;38468;48.114;-1.684;2023-06-10T04:34:22;19.95;;;16.52;;
52574;SDS011;38468;48.114;-1.684;2023-06-10T04:36:22;17.80;;;15.23;;
52574;SDS011;38468;48.114;-1.684;2023-06-10T04:38:23;21.67;;;16.25;;
52574;SDS011;38468;48.114;-1.684;2023-06-10T04:40:24;24.00;;;17.40;;
52574;SDS011;38468;48.114;-1.684;2023-06-10T04:42:24;17.92;;;13.25;;
52574;SDS011;38468;48.114;-1.684;2023-06-10T04:44:25;19.70;;;14.90;;
52574;SDS011;38468;48.114;-1.684;2023-06-10T04:46:26;16.33;;;14.63;;
52574;SDS011;38468;48.114;-1.684;2023-06-10T04:48:26;21.90;;;16.25;;
52574;SDS011;38468;48.114;-1.684;2023-06-10T04:50:27;19.48;;;15.93;;
52574;SDS011;38468;48.114;-1.684;2023-06-10T04:52:28;20.30;;;16.73;;
52574;SDS011;38468;48.114;-1.684;2023-06-10T04:54:28;19.08;;;17.05;;
52574;SDS011;38468;48.114;-1.684;2023-06-10T04:56:29;16.67;;;14.82;;
52574;SDS011;38468;48.114;-1.684;2023-06-10T04:58:30;23.88;;;15.35;;
52574;SDS011;38468;48.114;-1.684;2023-06-10T05:00:31;16.75;;;14.05;;
52574;SDS011;38468;48.114;-1.684;2023-06-10T05:02:32;20.85;;;15.63;;
52574;SDS011;38468;48.114;-1.684;2023-06-10T05:04:32;19.95;;;14.65;;
52574;SDS011;38468;48.114;-1.684;2023-06-10T05:06:33;17.30;;;14.38;;
52574;SDS011;38468;48.114;-1.684;2023-06-10T05:08:34;17.70;;;15.63;;
52574;SDS011;38468;48.114;-1.684;2023-06-10T05:10:34;25.13;;;16.15;;
52574;SDS011;38468;48.114;-1.684;2023-06-10T05:12:35;25.13;;;14.95;;
52574;SDS011;38468;48.114;-1.684;2023-06-10T05:14:36;19.88;;;16.52;;
52574;SDS011;38468;48.114;-1.684;2023-06-10T05:16:36;20.38;;;15.45;;
52574;SDS011;38468;48.114;-1.684;2023-06-10T05:18:37;23.65;;;16.10;;
52574;SDS011;38468;48.114;-1.684;2023-06-10T05:20:38;19.48;;;14.30;;
52574;SDS011;38468;48.114;-1.684;2023-06-10T05:22:39;16.73;;;14.98;;
52574;SDS011;38468;48.114;-1.684;2023-06-10T05:24:40;20.40;;;16.27;;
52574;SDS011;38468;48.114;-1.684;2023-06-10T05:26:41;19.85;;;17.42;;
52574;SDS011;38468;48.114;-1.684;2023-06-10T05:28:42;19.40;;;16.08;;
52574;SDS011;38468;48.114;-1.684;2023-06-10T05:30:43;21.17;;;17.80;;
52574;SDS011;38468;48.114;-1.684;2023-06-10T05:32:43;20.13;;;16.63;;
52574;SDS011;38468;48.114;-1.684;2023-06-10T05:34:44;18.20;;;15.57;;
52574;SDS011;38468;48.114;-1.684;2023-06-10T05:36:45;17.63;;;15.75;;
52574;SDS011;38468;48.114;-1.684;2023-06-10T05:38:46;23.42;;;18.27;;
52574;SDS011;38468;48.114;-1.684;2023-06-10T05:40:47;25.27;;;17.30;;
52574;SDS011;38468;48.114;-1.684;2023-06-10T05:42:47;20.10;;;17.83;;
52574;SDS011;38468;48.114;-1.684;2023-06-10T05:44:48;18.67;;;15.27;;
52574;SDS011;38468;48.114;-1.684;2023-06-10T05:46:48;25.42;;;17.38;;
52574;SDS011;38468;48.114;-1.684;2023-06-10T05:48:49;16.40;;;14.23;;
52574;SDS011;38468;48.114;-1.684;2023-06-10T05:50:50;23.83;;;16.17;;
52574;SDS011;38468;48.114;-1.684;2023-06-10T05:52:50;19.80;;;15.68;;
52574;SDS011;38468;48.114;-1.684;2023-06-10T05:54:53;25.50;;;18.08;;
52574;SDS011;38468;48.114;-1.684;2023-06-10T05:56:54;17.65;;;15.88;;
52574;SDS011;38468;48.114;-1.684;2023-06-10T05:58:55;23.20;;;15.93;;
52574;SDS011;38468;48.114;-1.684;2023-06-10T06:00:56;22.23;;;16.13;;
52574;SDS011;38468;48.114;-1.684;2023-06-10T06:02:57;21.08;;;18.35;;
52574;SDS011;38468;48.114;-1.684;2023-06-10T06:04:58;23.02;;;16.00;;
52574;SDS011;38468;48.114;-1.684;2023-06-10T06:06:59;23.98;;;16.15;;
52574;SDS011;38468;48.114;-1.684;2023-06-10T06:09:00;18.17;;;15.48;;
52574;SDS011;38468;48.114;-1.684;2023-06-10T06:11:00;24.45;;;17.15;;
52574;SDS011;38468;48.114;-1.684;2023-06-10T06:13:01;16.75;;;15.05;;
52574;SDS011;38468;48.114;-1.684;2023-06-10T06:15:02;17.05;;;15.27;;
52574;SDS011;38468;48.114;-1.684;2023-06-10T06:17:03;18.05;;;16.13;;
52574;SDS011;38468;48.114;-1.684;2023-06-10T06:19:04;22.98;;;18.92;;
52574;SDS011;38468;48.114;-1.684;2023-06-10T06:21:05;20.45;;;15.93;;
52574;SDS011;38468;48.114;-1.684;2023-06-10T06:23:05;19.98;;;17.80;;
52574;SDS011;38468;48.114;-1.684;2023-06-10T06:25:06;18.65;;;15.65;;
52574;SDS011;38468;48.114;-1.684;2023-06-10T06:27:07;21.65;;;14.98;;
52574;SDS011;38468;48.114;-1.684;2023-06-10T06:29:07;22.02;;;16.38;;
52574;SDS011;38468;48.114;-1.684;2023-06-10T06:31:11;22.13;;;17.08;;
52574;SDS011;38468;48.114;-1.684;2023-06-10T06:33:13;22.48;;;17.13;;
52574;SDS011;38468;48.114;-1.684;2023-06-10T06:35:13;20.98;;;17.33;;
52574;SDS011;38468;48.114;-1.684;2023-06-10T06:37:14;20.92;;;17.63;;
52574;SDS011;38468;48.114;-1.684;2023-06-10T06:39:15;18.67;;;16.48;;
52574;SDS011;38468;48.114;-1.684;2023-06-10T06:41:16;17.55;;;15.40;;
52574;SDS011;38468;48.114;-1.684;2023-06-10T06:43:16;17.50;;;15.50;;
52574;SDS011;38468;48.114;-1.684;2023-06-10T06:45:18;18.83;;;16.83;;
52574;SDS011;38468;48.114;-1.684;2023-06-10T06:47:19;31.48;;;19.27;;
52574;SDS011;38468;48.114;-1.684;2023-06-10T06:49:19;22.25;;;16.92;;
52574;SDS011;38468;48.114;-1.684;2023-06-10T06:51:20;21.48;;;17.10;;
52574;SDS011;38468;48.114;-1.684;2023-06-10T06:53:21;19.35;;;16.40;;
52574;SDS011;38468;48.114;-1.684;2023-06-10T06:55:22;20.48;;;17.05;;
52574;SDS011;38468;48.114;-1.684;2023-06-10T06:57:22;22.10;;;17.58;;
52574;SDS011;38468;48.114;-1.684;2023-06-10T06:59:23;24.67;;;19.65;;
52574;SDS011;38468;48.114;-1.684;2023-06-10T07:01:25;22.90;;;18.08;;
52574;SDS011;38468;48.114;-1.684;2023-06-10T07:03:26;22.17;;;20.13;;
52574;SDS011;38468;48.114;-1.684;2023-06-10T07:05:27;20.50;;;17.75;;
52574;SDS011;38468;48.114;-1.684;2023-06-10T07:07:27;18.77;;;16.73;;
52574;SDS011;38468;48.114;-1.684;2023-06-10T07:09:28;21.45;;;18.20;;
52574;SDS011;38468;48.114;-1.684;2023-06-10T07:11:29;24.55;;;19.23;;
52574;SDS011;38468;48.114;-1.684;2023-06-10T07:13:30;16.42;;;14.68;;
52574;SDS011;38468;48.114;-1.684;2023-06-10T07:15:30;24.52;;;18.27;;
52574;SDS011;38468;48.114;-1.684;2023-06-10T07:17:32;23.42;;;18.50;;
52574;SDS011;38468;48.114;-1.684;2023-06-10T07:19:34;21.33;;;17.95;;
52574;SDS011;38468;48.114;-1.684;2023-06-10T07:21:35;18.73;;;16.75;;
52574;SDS011;38468;48.114;-1.684;2023-06-10T07:23:36;20.92;;;16.48;;
52574;SDS011;38468;48.114;-1.684;2023-06-10T07:25:37;18.85;;;16.80;;
52574;SDS011;38468;48.114;-1.684;2023-06-10T07:27:37;25.95;;;17.13;;
52574;SDS011;38468;48.114;-1.684;2023-06-10T07:29:38;19.05;;;17.05;;
52574;SDS011;38468;48.114;-1.684;2023-06-10T07:31:40;21.70;;;17.40;;
52574;SDS011;38468;48.114;-1.684;2023-06-10T07:33:41;18.30;;;15.80;;
52574;SDS011;38468;48.114;-1.684;2023-06-10T07:37:44;16.60;;;14.30;;
52574;SDS011;38468;48.114;-1.684;2023-06-10T07:39:45;18.95;;;16.50;;
52574;SDS011;38468;48.114;-1.684;2023-06-10T07:41:46;22.95;;;15.98;;
52574;SDS011;38468;48.114;-1.684;2023-06-10T07:43:47;17.70;;;15.88;;
52574;SDS011;38468;48.114;-1.684;2023-06-10T07:45:47;19.05;;;16.88;;
52574;SDS011;38468;48.114;-1.684;2023-06-10T07:47:48;19.48;;;17.58;;
52574;SDS011;38468;48.114;-1.684;2023-06-10T07:49:48;20.23;;;17.23;;
52574;SDS011;38468;48.114;-1.684;2023-06-10T07:51:50;20.92;;;14.57;;
52574;SDS011;38468;48.114;-1.684;2023-06-10T07:53:50;20.52;;;16.17;;
52574;SDS011;38468;48.114;-1.684;2023-06-10T07:55:51;18.17;;;15.60;;
52574;SDS011;38468;48.114;-1.684;2023-06-10T07:57:52;23.25;;;16.38;;
52574;SDS011;38468;48.114;-1.684;2023-06-10T07:59:53;18.58;;;15.27;;
52574;SDS011;38468;48.114;-1.684;2023-06-10T08:01:55;16.25;;;14.50;;
52574;SDS011;38468;48.114;-1.684;2023-06-10T08:03:55;16.98;;;15.07;;
52574;SDS011;38468;48.114;-1.684;2023-06-10T08:05:56;19.83;;;16.40;;
52574;SDS011;38468;48.114;-1.684;2023-06-10T08:07:56;17.35;;;15.32;;
52574;SDS011;38468;48.114;-1.684;2023-06-10T08:09:57;20.95;;;15.80;;
52574;SDS011;38468;48.114;-1.684;2023-06-10T08:11:58;18.92;;;14.95;;
52574;SDS011;38468;48.114;-1.684;2023-06-10T08:13:58;18.63;;;15.38;;
52574;SDS011;38468;48.114;-1.684;2023-06-10T08:15:59;17.40;;;15.23;;
52574;SDS011;38468;48.114;-1.684;2023-06-10T08:18:00;15.32;;;13.88;;
52574;SDS011;38468;48.114;-1.684;2023-06-10T08:20:01;25.17;;;16.90;;
52574;SDS011;38468;48.114;-1.684;2023-06-10T08:22:02;17.20;;;15.15;;
52574;SDS011;38468;48.114;-1.684;2023-06-10T08:24:02;21.50;;;15.40;;
52574;SDS011;38468;48.114;-1.684;2023-06-10T08:26:03;16.85;;;15.10;;
52574;SDS011;38468;48.114;-1.684;2023-06-10T08:28:04;21.33;;;15.32;;
52574;SDS011;38468;48.114;-1.684;2023-06-10T08:30:05;17.73;;;15.90;;
52574;SDS011;38468;48.114;-1.684;2023-06-10T08:32:06;19.45;;;15.75;;
52574;SDS011;38468;48.114;-1.684;2023-06-10T08:34:07;18.05;;;16.23;;
52574;SDS011;38468;48.114;-1.684;2023-06-10T08:36:07;18.48;;;14.68;;
52574;SDS011;38468;48.114;-1.684;2023-06-10T08:38:08;17.17;;;15.57;;
52574;SDS011;38468;48.114;-1.684;2023-06-10T08:40:09;18.42;;;15.25;;
52574;SDS011;38468;48.114;-1.684;2023-06-10T08:42:28;18.80;;;16.90;;
52574;SDS011;38468;48.114;-1.684;2023-06-10T08:44:33;17.45;;;15.73;;
52574;SDS011;38468;48.114;-1.684;2023-06-10T08:46:38;18.38;;;16.58;;
52574;SDS011;38468;48.114;-1.684;2023-06-10T08:48:43;17.10;;;15.60;;
52574;SDS011;38468;48.114;-1.684;2023-06-10T08:50:46;16.10;;;14.60;;
52574;SDS011;38468;48.114;-1.684;2023-06-10T08:52:50;16.27;;;14.55;;
52574;SDS011;38468;48.114;-1.684;2023-06-10T08:54:57;17.75;;;15.90;;
52574;SDS011;38468;48.114;-1.684;2023-06-10T08:57:06;18.20;;;16.40;;
52574;SDS011;38468;48.114;-1.684;2023-06-10T08:59:07;16.27;;;14.40;;
52574;SDS011;38468;48.114;-1.684;2023-06-10T09:01:08;15.77;;;14.35;;
52574;SDS011;38468;48.114;-1.684;2023-06-10T09:03:11;14.55;;;13.13;;
52574;SDS011;38468;48.114;-1.684;2023-06-10T09:05:18;16.35;;;14.90;;
52574;SDS011;38468;48.114;-1.684;2023-06-10T09:07:23;16.25;;;14.48;;
52574;SDS011;38468;48.114;-1.684;2023-06-10T09:09:26;13.50;;;12.25;;
52574;SDS011;38468;48.114;-1.684;2023-06-10T09:11:31;15.48;;;13.98;;
52574;SDS011;38468;48.114;-1.684;2023-06-10T09:13:32;14.68;;;13.27;;
52574;SDS011;38468;48.114;-1.684;2023-06-10T09:15:34;15.13;;;13.65;;
52574;SDS011;38468;48.114;-1.684;2023-06-10T09:17:43;15.93;;;14.43;;
52574;SDS011;38468;48.114;-1.684;2023-06-10T09:19:44;15.77;;;14.23;;
52574;SDS011;38468;48.114;-1.684;2023-06-10T09:21:46;15.50;;;14.10;;
52574;SDS011;38468;48.114;-1.684;2023-06-10T09:23:47;14.65;;;13.43;;
52574;SDS011;38468;48.114;-1.684;2023-06-10T09:25:55;15.93;;;14.30;;
52574;SDS011;38468;48.114;-1.684;2023-06-10T09:28:01;26.40;;;15.75;;
52574;SDS011;38468;48.114;-1.684;2023-06-10T09:30:03;15.55;;;14.15;;
52574;SDS011;38468;48.114;-1.684;2023-06-10T09:32:05;16.33;;;14.75;;
52574;SDS011;38468;48.114;-1.684;2023-06-10T09:34:11;15.20;;;13.63;;
52574;SDS011;38468;48.114;-1.684;2023-06-10T09:36:23;17.00;;;15.15;;
52574;SDS011;38468;48.114;-1.684;2023-06-10T09:38:30;15.98;;;14.30;;
52574;SDS011;38468;48.114;-1.684;2023-06-10T09:40:34;18.50;;;14.65;;
52574;SDS011;38468;48.114;-1.684;2023-06-10T09:42:54;14.60;;;13.05;;
52574;SDS011;38468;48.114;-1.684;2023-06-10T09:44:58;15.70;;;14.20;;
52574;SDS011;38468;48.114;-1.684;2023-06-10T09:46:59;15.68;;;14.38;;
52574;SDS011;38468;48.114;-1.684;2023-06-10T09:49:00;14.88;;;13.68;;
52574;SDS011;38468;48.114;-1.684;2023-06-10T09:51:08;16.27;;;14.63;;
52574;SDS011;38468;48.114;-1.684;2023-06-10T09:53:11;15.90;;;14.45;;
52574;SDS011;38468;48.114;-1.684;2023-06-10T09:55:12;13.88;;;12.73;;
52574;SDS011;38468;48.114;-1.684;2023-06-10T09:57:14;15.00;;;13.48;;
52574;SDS011;38468;48.114;-1.684;2023-06-10T09:59:30;15.38;;;13.88;;
52574;SDS011;38468;48.114;-1.684;2023-06-10T10:01:36;15.18;;;13.70;;
52574;SDS011;38468;48.114;-1.684;2023-06-10T10:03:46;14.10;;;12.82;;
52574;SDS011;38468;48.114;-1.684;2023-06-10T10:05:49;14.30;;;13.00;;
52574;SDS011;38468;48.114;-1.684;2023-06-10T10:07:52;13.60;;;12.50;;
52574;SDS011;38468;48.114;-1.684;2023-06-10T10:09:56;14.75;;;13.48;;
52574;SDS011;38468;48.114;-1.684;2023-06-10T10:11:57;16.85;;;15.23;;
52574;SDS011;38468;48.114;-1.684;2023-06-10T10:14:01;14.57;;;13.15;;
52574;SDS011;38468;48.114;-1.684;2023-06-10T10:16:11;15.32;;;13.75;;
52574;SDS011;38468;48.114;-1.684;2023-06-10T10:18:16;13.65;;;12.43;;
52574;SDS011;38468;48.114;-1.684;2023-06-10T10:20:24;14.32;;;13.13;;
52574;SDS011;38468;48.114;-1.684;2023-06-10T10:22:37;14.48;;;13.18;;
52574;SDS011;38468;48.114;-1.684;2023-06-10T10:24:42;13.75;;;12.57;;
52574;SDS011;38468;48.114;-1.684;2023-06-10T10:26:50;13.43;;;12.32;;
52574;SDS011;38468;48.114;-1.684;2023-06-10T10:29:07;13.85;;;12.75;;
52574;SDS011;38468;48.114;-1.684;2023-06-10T10:31:18;14.52;;;13.30;;
52574;SDS011;38468;48.114;-1.684;2023-06-10T10:33:20;14.55;;;13.25;;
52574;SDS011;38468;48.114;-1.684;2023-06-10T10:35:28;16.25;;;14.70;;
52574;SDS011;38468;48.114;-1.684;2023-06-10T10:37:33;16.42;;;14.77;;
52574;SDS011;38468;48.114;-1.684;2023-06-10T10:39:35;18.15;;;16.45;;
52574;SDS011;38468;48.114;-1.684;2023-06-10T10:41:36;28.17;;;18.63;;
52574;SDS011;38468;48.114;-1.684;2023-06-10T10:43:37;18.50;;;16.25;;
52574;SDS011;38468;48.114;-1.684;2023-06-10T10:45:38;17.02;;;15.27;;
52574;SDS011;38468;48.114;-1.684;2023-06-10T10:47:39;17.42;;;15.82;;
52574;SDS011;38468;48.114;-1.684;2023-06-10T10:49:42;17.85;;;15.95;;
52574;SDS011;38468;48.114;-1.684;2023-06-10T10:54:18;17.05;;;15.25;;
52574;SDS011;38468;48.114;-1.684;2023-06-10T10:56:18;22.48;;;16.10;;
52574;SDS011;38468;48.114;-1.684;2023-06-10T10:58:23;17.92;;;15.43;;
52574;SDS011;38468;48.114;-1.684;2023-06-10T11:00:26;19.77;;;16.33;;
52574;SDS011;38468;48.114;-1.684;2023-06-10T11:02:34;18.30;;;16.25;;
52574;SDS011;38468;48.114;-1.684;2023-06-10T11:04:46;19.55;;;17.63;;
52574;SDS011;38468;48.114;-1.684;2023-06-10T11:06:54;20.83;;;16.48;;
52574;SDS011;38468;48.114;-1.684;2023-06-10T11:11:26;18.17;;;16.00;;
52574;SDS011;38468;48.114;-1.684;2023-06-10T11:13:28;18.65;;;16.92;;
52574;SDS011;38468;48.114;-1.684;2023-06-10T11:15:29;16.73;;;15.20;;
52574;SDS011;38468;48.114;-1.684;2023-06-10T11:17:30;17.83;;;16.15;;
52574;SDS011;38468;48.114;-1.684;2023-06-10T11:19:34;18.65;;;16.85;;
52574;SDS011;38468;48.114;-1.684;2023-06-10T11:24:09;16.05;;;14.52;;
52574;SDS011;38468;48.114;-1.684;2023-06-10T11:28:19;17.70;;;16.20;;
52574;SDS011;38468;48.114;-1.684;2023-06-10T11:30:20;18.35;;;16.50;;
52574;SDS011;38468;48.114;-1.684;2023-06-10T11:32:29;18.02;;;16.35;;
52574;SDS011;38468;48.114;-1.684;2023-06-10T11:34:31;18.85;;;17.15;;
52574;SDS011;38468;48.114;-1.684;2023-06-10T11:36:33;16.30;;;14.77;;
52574;SDS011;38468;48.114;-1.684;2023-06-10T11:38:36;16.00;;;14.45;;
52574;SDS011;38468;48.114;-1.684;2023-06-10T11:40:37;17.27;;;15.55;;
52574;SDS011;38468;48.114;-1.684;2023-06-10T11:42:39;17.23;;;15.73;;
52574;SDS011;38468;48.114;-1.684;2023-06-10T11:44:52;21.63;;;13.57;;
52574;SDS011;38468;48.114;-1.684;2023-06-10T11:47:00;17.05;;;15.27;;
52574;SDS011;38468;48.114;-1.684;2023-06-10T11:49:08;14.52;;;13.13;;
52574;SDS011;38468;48.114;-1.684;2023-06-10T11:51:08;16.88;;;15.32;;
52574;SDS011;38468;48.114;-1.684;2023-06-10T11:53:09;16.05;;;14.68;;
52574;SDS011;38468;48.114;-1.684;2023-06-10T11:55:10;15.63;;;14.13;;
52574;SDS011;38468;48.114;-1.684;2023-06-10T11:57:10;19.97;;;15.67;;
52574;SDS011;38468;48.114;-1.684;2023-06-10T11:59:11;16.95;;;15.32;;
52574;SDS011;38468;48.114;-1.684;2023-06-10T12:01:12;16.30;;;14.70;;
52574;SDS011;38468;48.114;-1.684;2023-06-10T12:03:20;14.80;;;13.55;;
52574;SDS011;38468;48.114;-1.684;2023-06-10T12:05:24;16.38;;;14.77;;
52574;SDS011;38468;48.114;-1.684;2023-06-10T12:07:25;14.43;;;12.80;;